createdAt,value
2019-04-20T00:00:01.046Z,16.00
2019-04-20T00:02:32.212Z,17.67
2019-04-20T00:05:23.204Z,18.50
2019-04-20T00:08:03.228Z,12.37
2019-04-20T00:10:54.278Z,14.33
2019-04-20T00:13:37.815Z,9.90
2019-04-20T00:16:10.453Z,12.70
2019-04-20T00:19:03.233Z,9.40
2019-04-20T00:24:38.630Z,16.40
2019-04-20T00:27:38.887Z,19.43
2019-04-20T00:30:21.086Z,12.63
2019-04-20T00:32:54.689Z,10.10
2019-04-20T00:35:25.080Z,13.47
2019-04-20T00:38:09.863Z,12.87
2019-04-20T00:40:59.434Z,12.33
2019-04-20T00:43:38.780Z,14.77
2019-04-20T00:46:26.360Z,10.77
2019-04-20T00:49:17.232Z,13.37
2019-04-20T00:52:13.140Z,12.47
2019-04-20T00:54:24.537Z,11.37
2019-04-20T00:57:24.687Z,14.80
2019-04-20T01:00:17.660Z,11.87
2019-04-20T01:02:50.498Z,14.40
2019-04-20T01:05:59.684Z,18.40
2019-04-20T01:08:40.252Z,14.83
2019-04-20T01:11:36.745Z,15.47
2019-04-20T01:14:15.611Z,13.60
2019-04-20T01:17:10.984Z,16.50
2019-04-20T01:19:42.829Z,11.80
2019-04-20T01:22:18.465Z,11.90
2019-04-20T01:25:11.196Z,13.60
2019-04-20T01:28:18.336Z,13.40
2019-04-20T01:30:30.309Z,12.87
2019-04-20T01:33:18.831Z,16.67
2019-04-20T01:36:03.553Z,12.47
2019-04-20T01:38:44.243Z,12.87
2019-04-20T01:41:07.865Z,13.97
2019-04-20T01:43:58.570Z,13.63
2019-04-20T01:46:53.544Z,13.20
2019-04-20T01:49:35.197Z,19.63
2019-04-20T01:55:45.706Z,13.77
2019-04-20T01:58:52.394Z,21.73
2019-04-20T02:01:34.377Z,12.07
2019-04-20T02:04:22.448Z,16.37
2019-04-20T02:07:02.935Z,17.57
2019-04-20T02:09:49.876Z,11.70
2019-04-20T02:12:30.427Z,12.60
2019-04-20T02:18:22.859Z,16.37
2019-04-20T02:21:22.089Z,16.20
2019-04-20T02:23:48.276Z,12.83
2019-04-20T02:26:18.060Z,14.17
2019-04-20T02:29:30.640Z,11.73
2019-04-20T02:35:27.891Z,15.53
2019-04-20T02:46:15.320Z,14.87
2019-04-20T02:49:10.138Z,11.20
2019-04-20T02:51:46.868Z,19.50
2019-04-20T02:54:28.549Z,14.80
2019-04-20T02:57:14.304Z,15.60
2019-04-20T03:00:03.200Z,11.63
2019-04-20T03:02:14.768Z,9.87
2019-04-20T03:04:49.155Z,11.90
2019-04-20T03:07:50.339Z,13.63
2019-04-20T03:10:43.411Z,15.27
2019-04-20T03:13:14.410Z,11.40
2019-04-20T03:16:00.106Z,17.97
2019-04-20T03:18:42.848Z,13.73
2019-04-20T03:21:27.369Z,11.20
2019-04-20T03:24:06.438Z,11.17
2019-04-20T03:26:59.814Z,18.30
2019-04-20T03:30:04.183Z,11.77
2019-04-20T03:33:12.658Z,10.20
2019-04-20T03:35:45.988Z,12.67
2019-04-20T03:38:20.095Z,9.60
2019-04-20T03:40:49.811Z,11.27
2019-04-20T03:43:20.181Z,10.60
2019-04-20T03:46:07.517Z,19.83
2019-04-20T03:49:05.906Z,10.43
2019-04-20T03:51:53.343Z,11.03
2019-04-20T03:54:43.449Z,10.07
2019-04-20T04:01:13.323Z,12.97
2019-04-20T04:04:19.408Z,12.63
2019-04-20T04:06:41.264Z,13.50
2019-04-20T04:09:21.399Z,11.90
2019-04-20T04:12:05.702Z,14.53
2019-04-20T04:14:35.256Z,17.50
2019-04-20T04:17:33.118Z,15.73
2019-04-20T04:20:20.717Z,17.73
2019-04-20T04:23:15.014Z,13.20
2019-04-20T04:26:01.933Z,18.57
2019-04-20T04:28:40.696Z,12.67
2019-04-20T04:31:28.119Z,13.03
2019-04-20T04:34:10.740Z,14.50
2019-04-20T04:36:59.357Z,11.77
2019-04-20T04:39:42.921Z,13.27
2019-04-20T04:42:35.144Z,15.53
2019-04-20T04:44:53.531Z,14.50
2019-04-20T04:47:32.566Z,16.70
2019-04-20T04:50:56.479Z,10.63
2019-04-20T04:53:40.822Z,15.60
2019-04-20T04:56:14.121Z,12.53
2019-04-20T04:58:53.705Z,39.03
2019-04-20T05:01:38.616Z,17.27
2019-04-20T05:07:49.589Z,15.07
2019-04-20T05:13:19.809Z,13.17
2019-04-20T05:16:33.747Z,12.13
2019-04-20T05:22:13.764Z,14.33
2019-04-20T05:25:10.644Z,11.60
2019-04-20T05:30:43.924Z,21.07
2019-04-20T05:33:25.440Z,12.70
2019-04-20T05:36:14.731Z,13.83
2019-04-20T05:39:05.219Z,12.13
2019-04-20T05:41:37.324Z,10.23
2019-04-20T05:47:24.025Z,16.87
2019-04-20T05:49:53.872Z,12.33
2019-04-20T05:52:53.663Z,14.83
2019-04-20T05:55:25.266Z,12.30
2019-04-20T05:58:08.821Z,14.97
2019-04-20T06:00:55.407Z,16.53
2019-04-20T06:03:33.571Z,17.70
2019-04-20T06:06:16.818Z,17.00
2019-04-20T06:08:59.631Z,19.27
2019-04-20T06:11:52.371Z,22.87
2019-04-20T06:14:39.199Z,14.27
2019-04-20T06:20:31.292Z,16.50
2019-04-20T06:23:34.628Z,17.60
2019-04-20T06:26:33.585Z,21.90
2019-04-20T06:29:18.430Z,13.43
2019-04-20T06:32:05.090Z,18.30
2019-04-20T06:35:02.480Z,12.90
2019-04-20T06:37:29.297Z,22.73
2019-04-20T06:40:35.126Z,16.23
2019-04-20T06:42:59.957Z,17.73
2019-04-20T06:45:51.142Z,19.80
2019-04-20T06:48:36.346Z,13.70
2019-04-20T06:51:09.205Z,15.63
2019-04-20T06:53:51.560Z,18.43
2019-04-20T06:56:42.081Z,20.37
2019-04-20T06:59:27.577Z,19.83
2019-04-20T07:02:11.709Z,14.40
2019-04-20T07:04:48.135Z,17.00
2019-04-20T07:07:27.921Z,18.43
2019-04-20T07:10:08.692Z,23.53
2019-04-20T07:12:33.059Z,16.30
2019-04-20T07:15:19.894Z,18.73
2019-04-20T07:18:09.535Z,22.60
2019-04-20T07:21:09.878Z,17.37
2019-04-20T07:23:41.865Z,17.33
2019-04-20T07:26:24.203Z,15.23
2019-04-20T07:29:07.129Z,18.87
2019-04-20T07:31:44.544Z,15.20
2019-04-20T07:34:34.822Z,19.47
2019-04-20T07:40:15.151Z,17.80
2019-04-20T07:42:58.995Z,18.60
2019-04-20T07:45:36.478Z,27.23
2019-04-20T07:48:26.211Z,28.90
2019-04-20T07:50:56.829Z,20.53
2019-04-20T07:53:42.218Z,22.87
2019-04-20T07:56:32.611Z,22.17
2019-04-20T07:58:57.105Z,25.87
2019-04-20T08:02:29.430Z,22.30
2019-04-20T08:10:28.715Z,23.20
2019-04-20T08:13:21.563Z,19.80
2019-04-20T08:16:00.956Z,19.30
2019-04-20T08:18:41.268Z,23.00
2019-04-20T08:21:22.863Z,17.90
2019-04-20T08:24:02.414Z,17.87
2019-04-20T08:26:30.951Z,19.57
2019-04-20T08:35:20.104Z,22.97
2019-04-20T08:38:32.613Z,19.23
2019-04-20T08:40:44.161Z,17.50
2019-04-20T08:43:39.585Z,17.17
2019-04-20T08:46:05.510Z,14.00
2019-04-20T08:48:46.788Z,14.30
2019-04-20T08:51:41.640Z,13.50
2019-04-20T08:54:14.374Z,29.63
2019-04-20T08:56:46.188Z,13.93
2019-04-20T08:59:23.266Z,12.77
2019-04-20T09:02:09.882Z,13.13
2019-04-20T09:04:55.231Z,16.70
2019-04-20T09:07:32.054Z,15.57
2019-04-20T09:13:26.966Z,14.37
2019-04-20T09:16:10.858Z,15.03
2019-04-20T09:18:56.406Z,8.57
2019-04-20T09:21:40.266Z,8.03
2019-04-20T09:24:38.197Z,8.97
2019-04-20T09:30:05.795Z,7.00
2019-04-20T09:32:43.949Z,8.70
2019-04-20T09:35:38.729Z,10.00
2019-04-20T09:38:14.456Z,6.97
2019-04-20T09:41:03.580Z,9.47
2019-04-20T09:43:38.996Z,9.23
2019-04-20T09:46:16.002Z,7.20
2019-04-20T09:48:51.193Z,7.40
2019-04-20T09:51:55.126Z,6.83
2019-04-20T09:54:40.304Z,9.33
2019-04-20T09:57:26.790Z,6.43
2019-04-20T10:00:10.254Z,6.60
2019-04-20T10:02:35.007Z,6.57
2019-04-20T10:05:15.682Z,7.63
2019-04-20T10:10:43.806Z,6.70
2019-04-20T10:13:27.178Z,6.77
2019-04-20T10:16:09.198Z,11.87
2019-04-20T10:18:59.004Z,6.93
2019-04-20T10:21:48.758Z,7.87
2019-04-20T10:24:39.564Z,5.93
2019-04-20T10:27:10.683Z,6.33
2019-04-20T10:30:02.758Z,7.87
2019-04-20T10:32:53.937Z,8.20
2019-04-20T10:35:29.832Z,7.53
2019-04-20T10:38:27.864Z,7.90
2019-04-20T10:41:11.463Z,6.07
2019-04-20T10:43:47.216Z,7.50
2019-04-20T10:46:37.002Z,6.33
2019-04-20T10:49:27.134Z,7.30
2019-04-20T10:52:09.837Z,6.70
2019-04-20T10:55:00.644Z,6.90
2019-04-20T10:57:43.801Z,12.20
2019-04-20T11:04:02.952Z,8.53
2019-04-20T11:06:47.551Z,8.17
2019-04-20T11:09:18.504Z,6.80
2019-04-20T11:12:10.440Z,7.80
2019-04-20T11:14:48.010Z,6.50
2019-04-20T11:17:31.707Z,7.73
2019-04-20T11:23:18.219Z,7.30
2019-04-20T11:26:08.516Z,6.73
2019-04-20T11:28:52.291Z,6.80
2019-04-20T11:31:40.920Z,8.20
2019-04-20T11:34:14.909Z,6.60
2019-04-20T11:36:55.098Z,9.67
2019-04-20T11:40:06.278Z,6.70
2019-04-20T11:42:41.787Z,6.00
2019-04-20T11:45:32.914Z,6.20
2019-04-20T11:48:23.377Z,6.43
2019-04-20T11:51:01.396Z,13.13
2019-04-20T11:53:43.331Z,6.13
2019-04-20T11:56:38.308Z,5.87
2019-04-20T12:03:21.824Z,8.77
2019-04-20T12:05:53.700Z,6.87
2019-04-20T12:09:14.941Z,7.50
2019-04-20T12:12:10.193Z,6.00
2019-04-20T12:14:40.978Z,7.00
2019-04-20T12:17:23.793Z,6.43
2019-04-20T12:23:18.107Z,8.27
2019-04-20T12:25:48.456Z,7.77
2019-04-20T12:28:38.264Z,7.40
2019-04-20T12:31:29.317Z,6.57
2019-04-20T12:34:11.449Z,5.30
2019-04-20T12:36:55.309Z,8.87
2019-04-20T12:39:33.131Z,12.33
2019-04-20T12:42:11.125Z,6.83
2019-04-20T12:44:53.392Z,12.30
2019-04-20T12:47:57.600Z,8.53
2019-04-20T12:50:39.749Z,15.20
2019-04-20T12:53:10.629Z,8.20
2019-04-20T12:56:02.291Z,8.10
2019-04-20T12:58:45.190Z,7.83
2019-04-20T13:01:35.434Z,5.90
2019-04-20T13:04:26.813Z,5.80
2019-04-20T13:07:10.175Z,6.70
2019-04-20T13:13:32.618Z,6.43
2019-04-20T13:19:13.192Z,6.63
2019-04-20T13:21:44.796Z,6.37
2019-04-20T13:24:35.098Z,6.60
2019-04-20T13:27:25.093Z,15.70
2019-04-20T13:30:48.060Z,7.23
2019-04-20T13:33:25.209Z,9.90
2019-04-20T13:35:56.397Z,5.93
2019-04-20T13:38:48.013Z,9.17
2019-04-20T13:41:24.598Z,6.83
2019-04-20T13:43:57.917Z,5.13
2019-04-20T13:46:40.921Z,8.13
2019-04-20T13:49:22.971Z,5.80
2019-04-20T13:52:00.064Z,6.60
2019-04-20T13:54:32.087Z,6.20
2019-04-20T14:00:29.505Z,6.47
2019-04-20T14:03:20.604Z,5.53
2019-04-20T14:05:56.841Z,6.13
2019-04-20T14:08:47.382Z,7.70
2019-04-20T14:11:29.743Z,7.13
2019-04-20T14:14:19.528Z,5.33
2019-04-20T14:17:10.535Z,5.47
2019-04-20T14:19:53.038Z,5.13
2019-04-20T14:22:36.562Z,7.13
2019-04-20T14:25:13.207Z,6.03
2019-04-20T14:27:57.267Z,5.37
2019-04-20T14:30:40.173Z,5.50
2019-04-20T14:33:23.077Z,4.73
2019-04-20T14:36:00.976Z,6.97
2019-04-20T14:38:56.288Z,9.70
2019-04-20T14:41:46.522Z,5.33
2019-04-20T14:47:19.261Z,5.83
2019-04-20T14:50:02.977Z,5.60
2019-04-20T14:52:39.708Z,5.27
2019-04-20T14:55:22.563Z,4.37
2019-04-20T15:01:27.213Z,4.97
2019-04-20T15:04:20.359Z,4.83
2019-04-20T15:07:00.399Z,5.75
2019-04-20T15:09:32.554Z,4.12
2019-04-20T15:12:22.295Z,4.50
2019-04-20T15:15:12.559Z,4.50
2019-04-20T15:20:42.097Z,4.00
2019-04-20T15:23:33.132Z,4.80
2019-04-20T15:26:16.072Z,3.67
2019-04-20T15:28:52.588Z,4.50
2019-04-20T15:31:43.778Z,4.90
2019-04-20T15:34:35.022Z,4.80
2019-04-20T15:37:18.174Z,4.72
2019-04-20T15:39:54.946Z,7.22
